<?xml version="1.0" encoding="UTF-8" standalone="no" ?>
<gpx xmlns="http://www.topografix.com/GPX/1/1" xmlns:xsi="http://www.w3.org/2001/XMLSchema-instance" xsi:schemaLocation="http://www.topografix.com/GPX/1/1 http://www.topografix.com/GPX/1/1/gpx.xsd" version="1.1" creator="VisuGPX - https://www.visugpx.com">
  <metadata>
    <name>83-V-Aups             </name>
    <desc><![CDATA[83-V-Aups : clos St André - la Colle]]></desc>
  </metadata>
  <trk>
    <name><![CDATA[2019-02-22-V-AUPS Clos St André les Costes 8km4 D140m F1 3H30 Vend Voit 60km D0910 1860]]></name>
    <trkseg>
      <trkpt lat="43.64447" lon="6.20113">
        <ele>535</ele>
        <time>2019-02-22T13:11:06Z</time>
      </trkpt>
      <trkpt lat="43.64447" lon="6.20113">
        <ele>535</ele>
        <time>2019-02-22T13:11:07Z</time>
      </trkpt>
      <trkpt lat="43.64453" lon="6.20105">
        <ele>534</ele>
        <time>2019-02-22T13:15:58Z</time>
      </trkpt>
      <trkpt lat="43.6446" lon="6.20095">
        <ele>535</ele>
        <time>2019-02-22T13:17:07Z</time>
      </trkpt>
      <trkpt lat="43.64468" lon="6.20088">
        <ele>535</ele>
        <time>2019-02-22T13:17:18Z</time>
      </trkpt>
      <trkpt lat="43.64477" lon="6.20083">
        <ele>536</ele>
        <time>2019-02-22T13:17:26Z</time>
      </trkpt>
      <trkpt lat="43.64487" lon="6.2008">
        <ele>536</ele>
        <time>2019-02-22T13:17:39Z</time>
      </trkpt>
      <trkpt lat="43.64495" lon="6.20077">
        <ele>536</ele>
        <time>2019-02-22T13:17:47Z</time>
      </trkpt>
      <trkpt lat="43.64505" lon="6.20075">
        <ele>537</ele>
        <time>2019-02-22T13:17:56Z</time>
      </trkpt>
      <trkpt lat="43.64513" lon="6.20075">
        <ele>537</ele>
        <time>2019-02-22T13:18:04Z</time>
      </trkpt>
      <trkpt lat="43.64523" lon="6.20077">
        <ele>537</ele>
        <time>2019-02-22T13:18:14Z</time>
      </trkpt>
      <trkpt lat="43.64533" lon="6.20077">
        <ele>537</ele>
        <time>2019-02-22T13:18:22Z</time>
      </trkpt>
      <trkpt lat="43.64543" lon="6.2008">
        <ele>538</ele>
        <time>2019-02-22T13:18:32Z</time>
      </trkpt>
      <trkpt lat="43.64548" lon="6.20092">
        <ele>538</ele>
        <time>2019-02-22T13:18:43Z</time>
      </trkpt>
      <trkpt lat="43.64555" lon="6.20098">
        <ele>539</ele>
        <time>2019-02-22T13:18:49Z</time>
      </trkpt>
      <trkpt lat="43.64565" lon="6.20102">
        <ele>539</ele>
        <time>2019-02-22T13:18:56Z</time>
      </trkpt>
      <trkpt lat="43.64573" lon="6.20108">
        <ele>540</ele>
        <time>2019-02-22T13:19:06Z</time>
      </trkpt>
      <trkpt lat="43.64578" lon="6.2012">
        <ele>541</ele>
        <time>2019-02-22T13:19:16Z</time>
      </trkpt>
      <trkpt lat="43.6458" lon="6.20133">
        <ele>541</ele>
        <time>2019-02-22T13:19:24Z</time>
      </trkpt>
      <trkpt lat="43.6458" lon="6.20147">
        <ele>542</ele>
        <time>2019-02-22T13:19:30Z</time>
      </trkpt>
      <trkpt lat="43.64583" lon="6.20158">
        <ele>543</ele>
        <time>2019-02-22T13:19:42Z</time>
      </trkpt>
      <trkpt lat="43.64588" lon="6.2017">
        <ele>543</ele>
        <time>2019-02-22T13:19:48Z</time>
      </trkpt>
      <trkpt lat="43.64595" lon="6.20177">
        <ele>543</ele>
        <time>2019-02-22T13:19:56Z</time>
      </trkpt>
      <trkpt lat="43.64602" lon="6.20188">
        <ele>543</ele>
        <time>2019-02-22T13:20:06Z</time>
      </trkpt>
      <trkpt lat="43.64608" lon="6.20197">
        <ele>544</ele>
        <time>2019-02-22T13:20:11Z</time>
      </trkpt>
      <trkpt lat="43.64615" lon="6.20207">
        <ele>544</ele>
        <time>2019-02-22T13:20:19Z</time>
      </trkpt>
      <trkpt lat="43.6461" lon="6.20218">
        <ele>544</ele>
        <time>2019-02-22T13:20:26Z</time>
      </trkpt>
      <trkpt lat="43.64617" lon="6.2023">
        <ele>545</ele>
        <time>2019-02-22T13:20:39Z</time>
      </trkpt>
      <trkpt lat="43.64622" lon="6.2024">
        <ele>545</ele>
        <time>2019-02-22T13:20:46Z</time>
      </trkpt>
      <trkpt lat="43.64627" lon="6.20252">
        <ele>545</ele>
        <time>2019-02-22T13:20:53Z</time>
      </trkpt>
      <trkpt lat="43.64635" lon="6.20257">
        <ele>546</ele>
        <time>2019-02-22T13:21:01Z</time>
      </trkpt>
      <trkpt lat="43.64643" lon="6.20263">
        <ele>547</ele>
        <time>2019-02-22T13:21:11Z</time>
      </trkpt>
      <trkpt lat="43.64652" lon="6.20267">
        <ele>547</ele>
        <time>2019-02-22T13:21:18Z</time>
      </trkpt>
      <trkpt lat="43.6466" lon="6.20275">
        <ele>547</ele>
        <time>2019-02-22T13:21:26Z</time>
      </trkpt>
      <trkpt lat="43.64668" lon="6.2028">
        <ele>547</ele>
        <time>2019-02-22T13:21:33Z</time>
      </trkpt>
      <trkpt lat="43.64678" lon="6.20287">
        <ele>547</ele>
        <time>2019-02-22T13:21:41Z</time>
      </trkpt>
      <trkpt lat="43.64687" lon="6.2029">
        <ele>547</ele>
        <time>2019-02-22T13:21:49Z</time>
      </trkpt>
      <trkpt lat="43.64697" lon="6.20292">
        <ele>547</ele>
        <time>2019-02-22T13:22:00Z</time>
      </trkpt>
      <trkpt lat="43.64707" lon="6.2029">
        <ele>548</ele>
        <time>2019-02-22T13:22:10Z</time>
      </trkpt>
      <trkpt lat="43.64715" lon="6.20285">
        <ele>548</ele>
        <time>2019-02-22T13:22:19Z</time>
      </trkpt>
      <trkpt lat="43.64723" lon="6.20283">
        <ele>548</ele>
        <time>2019-02-22T13:22:26Z</time>
      </trkpt>
      <trkpt lat="43.64733" lon="6.20283">
        <ele>549</ele>
        <time>2019-02-22T13:22:33Z</time>
      </trkpt>
      <trkpt lat="43.64743" lon="6.20282">
        <ele>550</ele>
        <time>2019-02-22T13:22:43Z</time>
      </trkpt>
      <trkpt lat="43.64752" lon="6.20277">
        <ele>551</ele>
        <time>2019-02-22T13:22:51Z</time>
      </trkpt>
      <trkpt lat="43.64758" lon="6.20268">
        <ele>551</ele>
        <time>2019-02-22T13:22:59Z</time>
      </trkpt>
      <trkpt lat="43.64762" lon="6.20257">
        <ele>551</ele>
        <time>2019-02-22T13:23:08Z</time>
      </trkpt>
      <trkpt lat="43.64763" lon="6.20243">
        <ele>551</ele>
        <time>2019-02-22T13:23:17Z</time>
      </trkpt>
      <trkpt lat="43.64768" lon="6.20232">
        <ele>552</ele>
        <time>2019-02-22T13:23:28Z</time>
      </trkpt>
      <trkpt lat="43.64772" lon="6.2022">
        <ele>552</ele>
        <time>2019-02-22T13:23:37Z</time>
      </trkpt>
      <trkpt lat="43.64775" lon="6.20205">
        <ele>552</ele>
        <time>2019-02-22T13:23:46Z</time>
      </trkpt>
      <trkpt lat="43.64778" lon="6.20193">
        <ele>552</ele>
        <time>2019-02-22T13:23:55Z</time>
      </trkpt>
      <trkpt lat="43.64783" lon="6.2018">
        <ele>553</ele>
        <time>2019-02-22T13:24:04Z</time>
      </trkpt>
      <trkpt lat="43.64788" lon="6.2017">
        <ele>553</ele>
        <time>2019-02-22T13:24:16Z</time>
      </trkpt>
      <trkpt lat="43.64795" lon="6.2016">
        <ele>554</ele>
        <time>2019-02-22T13:24:30Z</time>
      </trkpt>
      <trkpt lat="43.64803" lon="6.20155">
        <ele>555</ele>
        <time>2019-02-22T13:24:44Z</time>
      </trkpt>
      <trkpt lat="43.64813" lon="6.20158">
        <ele>555</ele>
        <time>2019-02-22T13:24:54Z</time>
      </trkpt>
      <trkpt lat="43.64823" lon="6.20157">
        <ele>556</ele>
        <time>2019-02-22T13:25:01Z</time>
      </trkpt>
      <trkpt lat="43.64832" lon="6.20158">
        <ele>556</ele>
        <time>2019-02-22T13:25:07Z</time>
      </trkpt>
      <trkpt lat="43.64842" lon="6.20163">
        <ele>556</ele>
        <time>2019-02-22T13:25:18Z</time>
      </trkpt>
      <trkpt lat="43.64848" lon="6.20172">
        <ele>556</ele>
        <time>2019-02-22T13:25:28Z</time>
      </trkpt>
      <trkpt lat="43.64857" lon="6.20178">
        <ele>557</ele>
        <time>2019-02-22T13:25:37Z</time>
      </trkpt>
      <trkpt lat="43.64865" lon="6.20187">
        <ele>557</ele>
        <time>2019-02-22T13:25:45Z</time>
      </trkpt>
      <trkpt lat="43.64873" lon="6.20192">
        <ele>558</ele>
        <time>2019-02-22T13:25:53Z</time>
      </trkpt>
      <trkpt lat="43.64885" lon="6.20192">
        <ele>558</ele>
        <time>2019-02-22T13:26:02Z</time>
      </trkpt>
      <trkpt lat="43.64892" lon="6.20183">
        <ele>559</ele>
        <time>2019-02-22T13:26:12Z</time>
      </trkpt>
      <trkpt lat="43.649" lon="6.20182">
        <ele>559</ele>
        <time>2019-02-22T13:26:22Z</time>
      </trkpt>
      <trkpt lat="43.6491" lon="6.20177">
        <ele>560</ele>
        <time>2019-02-22T13:26:32Z</time>
      </trkpt>
      <trkpt lat="43.64918" lon="6.2018">
        <ele>561</ele>
        <time>2019-02-22T13:26:41Z</time>
      </trkpt>
      <trkpt lat="43.64928" lon="6.20182">
        <ele>561</ele>
        <time>2019-02-22T13:26:50Z</time>
      </trkpt>
      <trkpt lat="43.64937" lon="6.20188">
        <ele>563</ele>
        <time>2019-02-22T13:27:05Z</time>
      </trkpt>
      <trkpt lat="43.64935" lon="6.20202">
        <ele>563</ele>
        <time>2019-02-22T13:27:13Z</time>
      </trkpt>
      <trkpt lat="43.64933" lon="6.20215">
        <ele>564</ele>
        <time>2019-02-22T13:27:21Z</time>
      </trkpt>
      <trkpt lat="43.64937" lon="6.20227">
        <ele>565</ele>
        <time>2019-02-22T13:27:29Z</time>
      </trkpt>
      <trkpt lat="43.64945" lon="6.20233">
        <ele>565</ele>
        <time>2019-02-22T13:27:38Z</time>
      </trkpt>
      <trkpt lat="43.64955" lon="6.20235">
        <ele>566</ele>
        <time>2019-02-22T13:27:44Z</time>
      </trkpt>
      <trkpt lat="43.64965" lon="6.2024">
        <ele>566</ele>
        <time>2019-02-22T13:27:54Z</time>
      </trkpt>
      <trkpt lat="43.64975" lon="6.20243">
        <ele>566</ele>
        <time>2019-02-22T13:28:03Z</time>
      </trkpt>
      <trkpt lat="43.6498" lon="6.20253">
        <ele>567</ele>
        <time>2019-02-22T13:28:13Z</time>
      </trkpt>
      <trkpt lat="43.64988" lon="6.20262">
        <ele>568</ele>
        <time>2019-02-22T13:28:28Z</time>
      </trkpt>
      <trkpt lat="43.64997" lon="6.20265">
        <ele>568</ele>
        <time>2019-02-22T13:28:36Z</time>
      </trkpt>
      <trkpt lat="43.65007" lon="6.20267">
        <ele>569</ele>
        <time>2019-02-22T13:28:44Z</time>
      </trkpt>
      <trkpt lat="43.65013" lon="6.20277">
        <ele>569</ele>
        <time>2019-02-22T13:28:53Z</time>
      </trkpt>
      <trkpt lat="43.65023" lon="6.20277">
        <ele>570</ele>
        <time>2019-02-22T13:29:04Z</time>
      </trkpt>
      <trkpt lat="43.65033" lon="6.20277">
        <ele>570</ele>
        <time>2019-02-22T13:29:12Z</time>
      </trkpt>
      <trkpt lat="43.65043" lon="6.20278">
        <ele>571</ele>
        <time>2019-02-22T13:29:21Z</time>
      </trkpt>
      <trkpt lat="43.65053" lon="6.20282">
        <ele>571</ele>
        <time>2019-02-22T13:29:31Z</time>
      </trkpt>
      <trkpt lat="43.65058" lon="6.20292">
        <ele>572</ele>
        <time>2019-02-22T13:29:39Z</time>
      </trkpt>
      <trkpt lat="43.65065" lon="6.20302">
        <ele>572</ele>
        <time>2019-02-22T13:29:47Z</time>
      </trkpt>
      <trkpt lat="43.65072" lon="6.20312">
        <ele>573</ele>
        <time>2019-02-22T13:29:54Z</time>
      </trkpt>
      <trkpt lat="43.65078" lon="6.20322">
        <ele>573</ele>
        <time>2019-02-22T13:30:05Z</time>
      </trkpt>
      <trkpt lat="43.65087" lon="6.20323">
        <ele>574</ele>
        <time>2019-02-22T13:30:29Z</time>
      </trkpt>
      <trkpt lat="43.6509" lon="6.2031">
        <ele>577</ele>
        <time>2019-02-22T13:30:58Z</time>
      </trkpt>
      <trkpt lat="43.65088" lon="6.20297">
        <ele>578</ele>
        <time>2019-02-22T13:31:12Z</time>
      </trkpt>
      <trkpt lat="43.65085" lon="6.20285">
        <ele>578</ele>
        <time>2019-02-22T13:31:25Z</time>
      </trkpt>
      <trkpt lat="43.65078" lon="6.20275">
        <ele>579</ele>
        <time>2019-02-22T13:31:38Z</time>
      </trkpt>
      <trkpt lat="43.65077" lon="6.20262">
        <ele>580</ele>
        <time>2019-02-22T13:31:49Z</time>
      </trkpt>
      <trkpt lat="43.65067" lon="6.20258">
        <ele>581</ele>
        <time>2019-02-22T13:31:59Z</time>
      </trkpt>
      <trkpt lat="43.6506" lon="6.20248">
        <ele>581</ele>
        <time>2019-02-22T13:32:09Z</time>
      </trkpt>
      <trkpt lat="43.65055" lon="6.20238">
        <ele>582</ele>
        <time>2019-02-22T13:32:24Z</time>
      </trkpt>
      <trkpt lat="43.65047" lon="6.20232">
        <ele>582</ele>
        <time>2019-02-22T13:32:37Z</time>
      </trkpt>
      <trkpt lat="43.6504" lon="6.20223">
        <ele>583</ele>
        <time>2019-02-22T13:32:48Z</time>
      </trkpt>
      <trkpt lat="43.6503" lon="6.20218">
        <ele>583</ele>
        <time>2019-02-22T13:32:58Z</time>
      </trkpt>
      <trkpt lat="43.65022" lon="6.20215">
        <ele>584</ele>
        <time>2019-02-22T13:33:06Z</time>
      </trkpt>
      <trkpt lat="43.65012" lon="6.2021">
        <ele>584</ele>
        <time>2019-02-22T13:33:17Z</time>
      </trkpt>
      <trkpt lat="43.65005" lon="6.20203">
        <ele>586</ele>
        <time>2019-02-22T13:33:28Z</time>
      </trkpt>
      <trkpt lat="43.65005" lon="6.20188">
        <ele>586</ele>
        <time>2019-02-22T13:33:38Z</time>
      </trkpt>
      <trkpt lat="43.65007" lon="6.20177">
        <ele>587</ele>
        <time>2019-02-22T13:33:47Z</time>
      </trkpt>
      <trkpt lat="43.65005" lon="6.20163">
        <ele>588</ele>
        <time>2019-02-22T13:33:57Z</time>
      </trkpt>
      <trkpt lat="43.65005" lon="6.20152">
        <ele>589</ele>
        <time>2019-02-22T13:34:07Z</time>
      </trkpt>
      <trkpt lat="43.65005" lon="6.20138">
        <ele>590</ele>
        <time>2019-02-22T13:34:17Z</time>
      </trkpt>
      <trkpt lat="43.65007" lon="6.20125">
        <ele>591</ele>
        <time>2019-02-22T13:34:28Z</time>
      </trkpt>
      <trkpt lat="43.65005" lon="6.20113">
        <ele>592</ele>
        <time>2019-02-22T13:35:15Z</time>
      </trkpt>
      <trkpt lat="43.65013" lon="6.20105">
        <ele>593</ele>
        <time>2019-02-22T13:37:10Z</time>
      </trkpt>
      <trkpt lat="43.6502" lon="6.20095">
        <ele>594</ele>
        <time>2019-02-22T13:37:19Z</time>
      </trkpt>
      <trkpt lat="43.65027" lon="6.20087">
        <ele>594</ele>
        <time>2019-02-22T13:37:27Z</time>
      </trkpt>
      <trkpt lat="43.65035" lon="6.20078">
        <ele>595</ele>
        <time>2019-02-22T13:37:37Z</time>
      </trkpt>
      <trkpt lat="43.65043" lon="6.20072">
        <ele>595</ele>
        <time>2019-02-22T13:37:49Z</time>
      </trkpt>
      <trkpt lat="43.65052" lon="6.2007">
        <ele>595</ele>
        <time>2019-02-22T13:37:58Z</time>
      </trkpt>
      <trkpt lat="43.65062" lon="6.20067">
        <ele>596</ele>
        <time>2019-02-22T13:38:15Z</time>
      </trkpt>
      <trkpt lat="43.65068" lon="6.20058">
        <ele>596</ele>
        <time>2019-02-22T13:38:24Z</time>
      </trkpt>
      <trkpt lat="43.65077" lon="6.2005">
        <ele>596</ele>
        <time>2019-02-22T13:38:34Z</time>
      </trkpt>
      <trkpt lat="43.65085" lon="6.20043">
        <ele>596</ele>
        <time>2019-02-22T13:38:43Z</time>
      </trkpt>
      <trkpt lat="43.65092" lon="6.20035">
        <ele>596</ele>
        <time>2019-02-22T13:38:50Z</time>
      </trkpt>
      <trkpt lat="43.65098" lon="6.20025">
        <ele>596</ele>
        <time>2019-02-22T13:38:58Z</time>
      </trkpt>
      <trkpt lat="43.65103" lon="6.20015">
        <ele>595</ele>
        <time>2019-02-22T13:39:07Z</time>
      </trkpt>
      <trkpt lat="43.65108" lon="6.20003">
        <ele>594</ele>
        <time>2019-02-22T13:39:15Z</time>
      </trkpt>
      <trkpt lat="43.65112" lon="6.1999">
        <ele>594</ele>
        <time>2019-02-22T13:39:23Z</time>
      </trkpt>
      <trkpt lat="43.65113" lon="6.19978">
        <ele>594</ele>
        <time>2019-02-22T13:39:33Z</time>
      </trkpt>
      <trkpt lat="43.65115" lon="6.19965">
        <ele>594</ele>
        <time>2019-02-22T13:39:42Z</time>
      </trkpt>
      <trkpt lat="43.65118" lon="6.19952">
        <ele>593</ele>
        <time>2019-02-22T13:39:49Z</time>
      </trkpt>
      <trkpt lat="43.65122" lon="6.1994">
        <ele>594</ele>
        <time>2019-02-22T13:39:58Z</time>
      </trkpt>
      <trkpt lat="43.65123" lon="6.19927">
        <ele>594</ele>
        <time>2019-02-22T13:40:08Z</time>
      </trkpt>
      <trkpt lat="43.65128" lon="6.19915">
        <ele>594</ele>
        <time>2019-02-22T13:40:15Z</time>
      </trkpt>
      <trkpt lat="43.65135" lon="6.19905">
        <ele>594</ele>
        <time>2019-02-22T13:40:23Z</time>
      </trkpt>
      <trkpt lat="43.65142" lon="6.19895">
        <ele>594</ele>
        <time>2019-02-22T13:40:33Z</time>
      </trkpt>
      <trkpt lat="43.6515" lon="6.19888">
        <ele>595</ele>
        <time>2019-02-22T13:40:42Z</time>
      </trkpt>
      <trkpt lat="43.65158" lon="6.1988">
        <ele>595</ele>
        <time>2019-02-22T13:40:53Z</time>
      </trkpt>
      <trkpt lat="43.65162" lon="6.19868">
        <ele>595</ele>
        <time>2019-02-22T13:41:00Z</time>
      </trkpt>
      <trkpt lat="43.65168" lon="6.1986">
        <ele>595</ele>
        <time>2019-02-22T13:41:09Z</time>
      </trkpt>
      <trkpt lat="43.65178" lon="6.19858">
        <ele>595</ele>
        <time>2019-02-22T13:41:15Z</time>
      </trkpt>
      <trkpt lat="43.65188" lon="6.19855">
        <ele>595</ele>
        <time>2019-02-22T13:41:24Z</time>
      </trkpt>
      <trkpt lat="43.65197" lon="6.19848">
        <ele>596</ele>
        <time>2019-02-22T13:41:33Z</time>
      </trkpt>
      <trkpt lat="43.65207" lon="6.19847">
        <ele>597</ele>
        <time>2019-02-22T13:41:42Z</time>
      </trkpt>
      <trkpt lat="43.65215" lon="6.1984">
        <ele>598</ele>
        <time>2019-02-22T13:41:51Z</time>
      </trkpt>
      <trkpt lat="43.65223" lon="6.19832">
        <ele>598</ele>
        <time>2019-02-22T13:41:59Z</time>
      </trkpt>
      <trkpt lat="43.65233" lon="6.1983">
        <ele>599</ele>
        <time>2019-02-22T13:42:10Z</time>
      </trkpt>
      <trkpt lat="43.65242" lon="6.19827">
        <ele>599</ele>
        <time>2019-02-22T13:42:20Z</time>
      </trkpt>
      <trkpt lat="43.65252" lon="6.19823">
        <ele>598</ele>
        <time>2019-02-22T13:42:29Z</time>
      </trkpt>
      <trkpt lat="43.6526" lon="6.19818">
        <ele>599</ele>
        <time>2019-02-22T13:42:39Z</time>
      </trkpt>
      <trkpt lat="43.65268" lon="6.19812">
        <ele>599</ele>
        <time>2019-02-22T13:42:49Z</time>
      </trkpt>
      <trkpt lat="43.65277" lon="6.19805">
        <ele>599</ele>
        <time>2019-02-22T13:42:58Z</time>
      </trkpt>
      <trkpt lat="43.65285" lon="6.19798">
        <ele>599</ele>
        <time>2019-02-22T13:43:06Z</time>
      </trkpt>
      <trkpt lat="43.65293" lon="6.198">
        <ele>598</ele>
        <time>2019-02-22T13:43:14Z</time>
      </trkpt>
      <trkpt lat="43.65303" lon="6.19803">
        <ele>598</ele>
        <time>2019-02-22T13:43:22Z</time>
      </trkpt>
      <trkpt lat="43.65312" lon="6.19808">
        <ele>598</ele>
        <time>2019-02-22T13:43:29Z</time>
      </trkpt>
      <trkpt lat="43.6532" lon="6.19815">
        <ele>598</ele>
        <time>2019-02-22T13:43:37Z</time>
      </trkpt>
      <trkpt lat="43.6533" lon="6.19818">
        <ele>598</ele>
        <time>2019-02-22T13:43:46Z</time>
      </trkpt>
      <trkpt lat="43.65338" lon="6.19815">
        <ele>598</ele>
        <time>2019-02-22T13:43:54Z</time>
      </trkpt>
      <trkpt lat="43.65348" lon="6.19812">
        <ele>598</ele>
        <time>2019-02-22T13:44:02Z</time>
      </trkpt>
      <trkpt lat="43.65358" lon="6.19808">
        <ele>599</ele>
        <time>2019-02-22T13:44:11Z</time>
      </trkpt>
      <trkpt lat="43.65367" lon="6.19807">
        <ele>599</ele>
        <time>2019-02-22T13:44:20Z</time>
      </trkpt>
      <trkpt lat="43.65377" lon="6.19807">
        <ele>599</ele>
        <time>2019-02-22T13:44:28Z</time>
      </trkpt>
      <trkpt lat="43.65387" lon="6.19808">
        <ele>599</ele>
        <time>2019-02-22T13:44:36Z</time>
      </trkpt>
      <trkpt lat="43.65397" lon="6.19808">
        <ele>599</ele>
        <time>2019-02-22T13:44:46Z</time>
      </trkpt>
      <trkpt lat="43.65405" lon="6.1981">
        <ele>599</ele>
        <time>2019-02-22T13:44:54Z</time>
      </trkpt>
      <trkpt lat="43.65415" lon="6.19808">
        <ele>599</ele>
        <time>2019-02-22T13:45:02Z</time>
      </trkpt>
      <trkpt lat="43.65425" lon="6.19812">
        <ele>599</ele>
        <time>2019-02-22T13:45:11Z</time>
      </trkpt>
      <trkpt lat="43.65433" lon="6.19818">
        <ele>600</ele>
        <time>2019-02-22T13:45:22Z</time>
      </trkpt>
      <trkpt lat="43.65442" lon="6.19825">
        <ele>599</ele>
        <time>2019-02-22T13:45:28Z</time>
      </trkpt>
      <trkpt lat="43.65452" lon="6.1983">
        <ele>599</ele>
        <time>2019-02-22T13:45:38Z</time>
      </trkpt>
      <trkpt lat="43.65462" lon="6.19833">
        <ele>599</ele>
        <time>2019-02-22T13:45:47Z</time>
      </trkpt>
      <trkpt lat="43.6547" lon="6.19835">
        <ele>599</ele>
        <time>2019-02-22T13:45:53Z</time>
      </trkpt>
      <trkpt lat="43.6548" lon="6.19838">
        <ele>598</ele>
        <time>2019-02-22T13:46:02Z</time>
      </trkpt>
      <trkpt lat="43.65488" lon="6.19842">
        <ele>598</ele>
        <time>2019-02-22T13:46:12Z</time>
      </trkpt>
      <trkpt lat="43.65498" lon="6.19845">
        <ele>597</ele>
        <time>2019-02-22T13:46:21Z</time>
      </trkpt>
      <trkpt lat="43.65508" lon="6.19847">
        <ele>597</ele>
        <time>2019-02-22T13:46:30Z</time>
      </trkpt>
      <trkpt lat="43.65518" lon="6.19845">
        <ele>599</ele>
        <time>2019-02-22T13:46:42Z</time>
      </trkpt>
      <trkpt lat="43.65525" lon="6.19838">
        <ele>600</ele>
        <time>2019-02-22T13:46:49Z</time>
      </trkpt>
      <trkpt lat="43.65532" lon="6.1983">
        <ele>601</ele>
        <time>2019-02-22T13:46:59Z</time>
      </trkpt>
      <trkpt lat="43.65538" lon="6.1982">
        <ele>602</ele>
        <time>2019-02-22T13:47:08Z</time>
      </trkpt>
      <trkpt lat="43.65547" lon="6.19812">
        <ele>602</ele>
        <time>2019-02-22T13:47:15Z</time>
      </trkpt>
      <trkpt lat="43.65552" lon="6.198">
        <ele>603</ele>
        <time>2019-02-22T13:47:23Z</time>
      </trkpt>
      <trkpt lat="43.65558" lon="6.1979">
        <ele>604</ele>
        <time>2019-02-22T13:47:33Z</time>
      </trkpt>
      <trkpt lat="43.65565" lon="6.1978">
        <ele>604</ele>
        <time>2019-02-22T13:47:44Z</time>
      </trkpt>
      <trkpt lat="43.65572" lon="6.1977">
        <ele>605</ele>
        <time>2019-02-22T13:47:53Z</time>
      </trkpt>
      <trkpt lat="43.65578" lon="6.1976">
        <ele>604</ele>
        <time>2019-02-22T13:48:02Z</time>
      </trkpt>
      <trkpt lat="43.65583" lon="6.1975">
        <ele>605</ele>
        <time>2019-02-22T13:48:08Z</time>
      </trkpt>
      <trkpt lat="43.6559" lon="6.19742">
        <ele>605</ele>
        <time>2019-02-22T13:48:17Z</time>
      </trkpt>
      <trkpt lat="43.65598" lon="6.19732">
        <ele>605</ele>
        <time>2019-02-22T13:48:28Z</time>
      </trkpt>
      <trkpt lat="43.65605" lon="6.19722">
        <ele>606</ele>
        <time>2019-02-22T13:48:35Z</time>
      </trkpt>
      <trkpt lat="43.65612" lon="6.1971">
        <ele>606</ele>
        <time>2019-02-22T13:48:45Z</time>
      </trkpt>
      <trkpt lat="43.65617" lon="6.197">
        <ele>607</ele>
        <time>2019-02-22T13:48:55Z</time>
      </trkpt>
      <trkpt lat="43.65623" lon="6.1969">
        <ele>608</ele>
        <time>2019-02-22T13:49:02Z</time>
      </trkpt>
      <trkpt lat="43.6563" lon="6.1968">
        <ele>609</ele>
        <time>2019-02-22T13:49:13Z</time>
      </trkpt>
      <trkpt lat="43.65637" lon="6.19672">
        <ele>609</ele>
        <time>2019-02-22T13:49:21Z</time>
      </trkpt>
      <trkpt lat="43.65642" lon="6.19658">
        <ele>610</ele>
        <time>2019-02-22T13:49:31Z</time>
      </trkpt>
      <trkpt lat="43.65648" lon="6.19648">
        <ele>611</ele>
        <time>2019-02-22T13:49:40Z</time>
      </trkpt>
      <trkpt lat="43.65653" lon="6.19638">
        <ele>610</ele>
        <time>2019-02-22T13:49:50Z</time>
      </trkpt>
      <trkpt lat="43.6566" lon="6.19628">
        <ele>611</ele>
        <time>2019-02-22T13:49:58Z</time>
      </trkpt>
      <trkpt lat="43.65668" lon="6.1962">
        <ele>611</ele>
        <time>2019-02-22T13:50:08Z</time>
      </trkpt>
      <trkpt lat="43.65675" lon="6.19612">
        <ele>612</ele>
        <time>2019-02-22T13:50:18Z</time>
      </trkpt>
      <trkpt lat="43.65682" lon="6.19603">
        <ele>612</ele>
        <time>2019-02-22T13:50:28Z</time>
      </trkpt>
      <trkpt lat="43.65688" lon="6.19592">
        <ele>613</ele>
        <time>2019-02-22T13:50:37Z</time>
      </trkpt>
      <trkpt lat="43.65697" lon="6.19568">
        <ele>614</ele>
        <time>2019-02-22T13:50:54Z</time>
      </trkpt>
      <trkpt lat="43.65703" lon="6.19558">
        <ele>616</ele>
        <time>2019-02-22T13:51:05Z</time>
      </trkpt>
      <trkpt lat="43.65712" lon="6.1955">
        <ele>616</ele>
        <time>2019-02-22T13:51:14Z</time>
      </trkpt>
      <trkpt lat="43.65717" lon="6.19538">
        <ele>617</ele>
        <time>2019-02-22T13:51:24Z</time>
      </trkpt>
      <trkpt lat="43.65722" lon="6.19528">
        <ele>617</ele>
        <time>2019-02-22T13:51:32Z</time>
      </trkpt>
      <trkpt lat="43.6573" lon="6.1952">
        <ele>618</ele>
        <time>2019-02-22T13:51:41Z</time>
      </trkpt>
      <trkpt lat="43.65735" lon="6.1951">
        <ele>619</ele>
        <time>2019-02-22T13:51:51Z</time>
      </trkpt>
      <trkpt lat="43.65742" lon="6.195">
        <ele>619</ele>
        <time>2019-02-22T13:52:01Z</time>
      </trkpt>
      <trkpt lat="43.6575" lon="6.1949">
        <ele>619</ele>
        <time>2019-02-22T13:52:10Z</time>
      </trkpt>
      <trkpt lat="43.65757" lon="6.19482">
        <ele>620</ele>
        <time>2019-02-22T13:52:19Z</time>
      </trkpt>
      <trkpt lat="43.65763" lon="6.19473">
        <ele>620</ele>
        <time>2019-02-22T13:52:28Z</time>
      </trkpt>
      <trkpt lat="43.6577" lon="6.19463">
        <ele>620</ele>
        <time>2019-02-22T13:52:36Z</time>
      </trkpt>
      <trkpt lat="43.65777" lon="6.19453">
        <ele>620</ele>
        <time>2019-02-22T13:52:44Z</time>
      </trkpt>
      <trkpt lat="43.65783" lon="6.19443">
        <ele>620</ele>
        <time>2019-02-22T13:52:54Z</time>
      </trkpt>
      <trkpt lat="43.65792" lon="6.19435">
        <ele>620</ele>
        <time>2019-02-22T13:53:02Z</time>
      </trkpt>
      <trkpt lat="43.65797" lon="6.19425">
        <ele>620</ele>
        <time>2019-02-22T13:53:11Z</time>
      </trkpt>
      <trkpt lat="43.65803" lon="6.19417">
        <ele>620</ele>
        <time>2019-02-22T13:53:19Z</time>
      </trkpt>
      <trkpt lat="43.65808" lon="6.19405">
        <ele>619</ele>
        <time>2019-02-22T13:53:27Z</time>
      </trkpt>
      <trkpt lat="43.65817" lon="6.19398">
        <ele>619</ele>
        <time>2019-02-22T13:53:37Z</time>
      </trkpt>
      <trkpt lat="43.65822" lon="6.19387">
        <ele>619</ele>
        <time>2019-02-22T13:53:45Z</time>
      </trkpt>
      <trkpt lat="43.65825" lon="6.19375">
        <ele>621</ele>
        <time>2019-02-22T13:53:56Z</time>
      </trkpt>
      <trkpt lat="43.65832" lon="6.19363">
        <ele>622</ele>
        <time>2019-02-22T13:54:06Z</time>
      </trkpt>
      <trkpt lat="43.65838" lon="6.19355">
        <ele>623</ele>
        <time>2019-02-22T13:54:16Z</time>
      </trkpt>
      <trkpt lat="43.65847" lon="6.19348">
        <ele>624</ele>
        <time>2019-02-22T13:54:25Z</time>
      </trkpt>
      <trkpt lat="43.65855" lon="6.19342">
        <ele>625</ele>
        <time>2019-02-22T13:54:35Z</time>
      </trkpt>
      <trkpt lat="43.65865" lon="6.19342">
        <ele>626</ele>
        <time>2019-02-22T13:54:45Z</time>
      </trkpt>
      <trkpt lat="43.65875" lon="6.19342">
        <ele>627</ele>
        <time>2019-02-22T13:54:58Z</time>
      </trkpt>
      <trkpt lat="43.65883" lon="6.19338">
        <ele>628</ele>
        <time>2019-02-22T13:55:10Z</time>
      </trkpt>
      <trkpt lat="43.65893" lon="6.19337">
        <ele>629</ele>
        <time>2019-02-22T13:55:19Z</time>
      </trkpt>
      <trkpt lat="43.65903" lon="6.19332">
        <ele>630</ele>
        <time>2019-02-22T13:56:12Z</time>
      </trkpt>
      <trkpt lat="43.65912" lon="6.1933">
        <ele>630</ele>
        <time>2019-02-22T13:56:20Z</time>
      </trkpt>
      <trkpt lat="43.65922" lon="6.1933">
        <ele>631</ele>
        <time>2019-02-22T13:56:29Z</time>
      </trkpt>
      <trkpt lat="43.6593" lon="6.19328">
        <ele>631</ele>
        <time>2019-02-22T13:56:38Z</time>
      </trkpt>
      <trkpt lat="43.6594" lon="6.19323">
        <ele>632</ele>
        <time>2019-02-22T13:56:48Z</time>
      </trkpt>
      <trkpt lat="43.65948" lon="6.19322">
        <ele>633</ele>
        <time>2019-02-22T13:56:57Z</time>
      </trkpt>
      <trkpt lat="43.65957" lon="6.19317">
        <ele>634</ele>
        <time>2019-02-22T13:57:07Z</time>
      </trkpt>
      <trkpt lat="43.6596" lon="6.19305">
        <ele>634</ele>
        <time>2019-02-22T13:57:11Z</time>
      </trkpt>
      <trkpt lat="43.65952" lon="6.19297">
        <ele>635</ele>
        <time>2019-02-22T13:57:44Z</time>
      </trkpt>
      <trkpt lat="43.6596" lon="6.19302">
        <ele>635</ele>
        <time>2019-02-22T14:01:02Z</time>
      </trkpt>
      <trkpt lat="43.6597" lon="6.193">
        <ele>635</ele>
        <time>2019-02-22T14:01:13Z</time>
      </trkpt>
      <trkpt lat="43.6598" lon="6.19297">
        <ele>635</ele>
        <time>2019-02-22T14:01:26Z</time>
      </trkpt>
      <trkpt lat="43.65988" lon="6.19292">
        <ele>637</ele>
        <time>2019-02-22T14:02:39Z</time>
      </trkpt>
      <trkpt lat="43.65997" lon="6.19288">
        <ele>637</ele>
        <time>2019-02-22T14:03:22Z</time>
      </trkpt>
      <trkpt lat="43.66005" lon="6.19285">
        <ele>638</ele>
        <time>2019-02-22T14:03:34Z</time>
      </trkpt>
      <trkpt lat="43.66015" lon="6.19282">
        <ele>638</ele>
        <time>2019-02-22T14:03:44Z</time>
      </trkpt>
      <trkpt lat="43.66025" lon="6.1928">
        <ele>638</ele>
        <time>2019-02-22T14:03:53Z</time>
      </trkpt>
      <trkpt lat="43.66033" lon="6.19275">
        <ele>639</ele>
        <time>2019-02-22T14:04:02Z</time>
      </trkpt>
      <trkpt lat="43.66043" lon="6.19272">
        <ele>639</ele>
        <time>2019-02-22T14:04:12Z</time>
      </trkpt>
      <trkpt lat="43.66053" lon="6.19268">
        <ele>640</ele>
        <time>2019-02-22T14:04:22Z</time>
      </trkpt>
      <trkpt lat="43.66062" lon="6.19263">
        <ele>641</ele>
        <time>2019-02-22T14:04:31Z</time>
      </trkpt>
      <trkpt lat="43.6607" lon="6.19258">
        <ele>641</ele>
        <time>2019-02-22T14:04:40Z</time>
      </trkpt>
      <trkpt lat="43.66078" lon="6.19257">
        <ele>642</ele>
        <time>2019-02-22T14:04:48Z</time>
      </trkpt>
      <trkpt lat="43.66088" lon="6.19257">
        <ele>643</ele>
        <time>2019-02-22T14:04:59Z</time>
      </trkpt>
      <trkpt lat="43.66098" lon="6.19255">
        <ele>643</ele>
        <time>2019-02-22T14:05:09Z</time>
      </trkpt>
      <trkpt lat="43.6611" lon="6.19253">
        <ele>645</ele>
        <time>2019-02-22T14:05:37Z</time>
      </trkpt>
      <trkpt lat="43.6612" lon="6.19257">
        <ele>647</ele>
        <time>2019-02-22T14:06:01Z</time>
      </trkpt>
      <trkpt lat="43.6613" lon="6.19262">
        <ele>647</ele>
        <time>2019-02-22T14:06:06Z</time>
      </trkpt>
      <trkpt lat="43.6614" lon="6.19262">
        <ele>648</ele>
        <time>2019-02-22T14:06:16Z</time>
      </trkpt>
      <trkpt lat="43.66148" lon="6.19257">
        <ele>648</ele>
        <time>2019-02-22T14:06:20Z</time>
      </trkpt>
      <trkpt lat="43.66157" lon="6.19252">
        <ele>648</ele>
        <time>2019-02-22T14:06:24Z</time>
      </trkpt>
      <trkpt lat="43.66157" lon="6.19232">
        <ele>647</ele>
        <time>2019-02-22T14:09:12Z</time>
      </trkpt>
      <trkpt lat="43.66165" lon="6.1917">
        <ele>647</ele>
        <time>2019-02-22T14:09:34Z</time>
      </trkpt>
      <trkpt lat="43.66173" lon="6.19147">
        <ele>647</ele>
        <time>2019-02-22T14:09:39Z</time>
      </trkpt>
      <trkpt lat="43.6618" lon="6.19137">
        <ele>647</ele>
        <time>2019-02-22T14:09:43Z</time>
      </trkpt>
      <trkpt lat="43.66188" lon="6.19105">
        <ele>645</ele>
        <time>2019-02-22T14:11:46Z</time>
      </trkpt>
      <trkpt lat="43.66278" lon="6.18883">
        <ele>643</ele>
        <time>2019-02-22T14:12:41Z</time>
      </trkpt>
      <trkpt lat="43.66278" lon="6.18868">
        <ele>644</ele>
        <time>2019-02-22T14:12:47Z</time>
      </trkpt>
      <trkpt lat="43.6628" lon="6.18847">
        <ele>644</ele>
        <time>2019-02-22T14:13:46Z</time>
      </trkpt>
      <trkpt lat="43.66278" lon="6.18833">
        <ele>644</ele>
        <time>2019-02-22T14:13:47Z</time>
      </trkpt>
      <trkpt lat="43.6628" lon="6.1882">
        <ele>644</ele>
        <time>2019-02-22T14:13:49Z</time>
      </trkpt>
      <trkpt lat="43.66283" lon="6.18808">
        <ele>644</ele>
        <time>2019-02-22T14:13:51Z</time>
      </trkpt>
      <trkpt lat="43.66285" lon="6.18792">
        <ele>643</ele>
        <time>2019-02-22T14:13:53Z</time>
      </trkpt>
      <trkpt lat="43.66292" lon="6.18782">
        <ele>643</ele>
        <time>2019-02-22T14:13:55Z</time>
      </trkpt>
      <trkpt lat="43.66297" lon="6.18762">
        <ele>642</ele>
        <time>2019-02-22T14:14:03Z</time>
      </trkpt>
      <trkpt lat="43.66302" lon="6.18745">
        <ele>641</ele>
        <time>2019-02-22T14:14:16Z</time>
      </trkpt>
      <trkpt lat="43.66307" lon="6.1873">
        <ele>641</ele>
        <time>2019-02-22T14:14:49Z</time>
      </trkpt>
      <trkpt lat="43.6631" lon="6.18717">
        <ele>641</ele>
        <time>2019-02-22T14:14:52Z</time>
      </trkpt>
      <trkpt lat="43.66315" lon="6.18702">
        <ele>641</ele>
        <time>2019-02-22T14:14:55Z</time>
      </trkpt>
      <trkpt lat="43.66315" lon="6.1869">
        <ele>641</ele>
        <time>2019-02-22T14:14:57Z</time>
      </trkpt>
      <trkpt lat="43.66312" lon="6.18673">
        <ele>639</ele>
        <time>2019-02-22T14:15:33Z</time>
      </trkpt>
      <trkpt lat="43.66312" lon="6.18662">
        <ele>639</ele>
        <time>2019-02-22T14:15:35Z</time>
      </trkpt>
      <trkpt lat="43.66313" lon="6.18647">
        <ele>639</ele>
        <time>2019-02-22T14:15:38Z</time>
      </trkpt>
      <trkpt lat="43.66308" lon="6.18602">
        <ele>639</ele>
        <time>2019-02-22T14:15:44Z</time>
      </trkpt>
      <trkpt lat="43.66305" lon="6.1858">
        <ele>640</ele>
        <time>2019-02-22T14:15:49Z</time>
      </trkpt>
      <trkpt lat="43.66303" lon="6.18567">
        <ele>639</ele>
        <time>2019-02-22T14:16:01Z</time>
      </trkpt>
      <trkpt lat="43.66302" lon="6.18552">
        <ele>639</ele>
        <time>2019-02-22T14:16:30Z</time>
      </trkpt>
      <trkpt lat="43.663" lon="6.18538">
        <ele>639</ele>
        <time>2019-02-22T14:17:41Z</time>
      </trkpt>
      <trkpt lat="43.66298" lon="6.18525">
        <ele>639</ele>
        <time>2019-02-22T14:31:53Z</time>
      </trkpt>
      <trkpt lat="43.66287" lon="6.18343">
        <ele>637</ele>
        <time>2019-02-22T14:33:20Z</time>
      </trkpt>
      <trkpt lat="43.66282" lon="6.18332">
        <ele>636</ele>
        <time>2019-02-22T14:33:36Z</time>
      </trkpt>
      <trkpt lat="43.66278" lon="6.1832">
        <ele>636</ele>
        <time>2019-02-22T14:33:40Z</time>
      </trkpt>
      <trkpt lat="43.6628" lon="6.18307">
        <ele>635</ele>
        <time>2019-02-22T14:33:49Z</time>
      </trkpt>
      <trkpt lat="43.66277" lon="6.18293">
        <ele>635</ele>
        <time>2019-02-22T14:33:55Z</time>
      </trkpt>
      <trkpt lat="43.66275" lon="6.18278">
        <ele>635</ele>
        <time>2019-02-22T14:34:06Z</time>
      </trkpt>
      <trkpt lat="43.66275" lon="6.18265">
        <ele>634</ele>
        <time>2019-02-22T14:34:19Z</time>
      </trkpt>
      <trkpt lat="43.66277" lon="6.18253">
        <ele>634</ele>
        <time>2019-02-22T14:34:23Z</time>
      </trkpt>
      <trkpt lat="43.66278" lon="6.1824">
        <ele>634</ele>
        <time>2019-02-22T14:34:36Z</time>
      </trkpt>
      <trkpt lat="43.6628" lon="6.18227">
        <ele>633</ele>
        <time>2019-02-22T14:35:06Z</time>
      </trkpt>
      <trkpt lat="43.66278" lon="6.18208">
        <ele>633</ele>
        <time>2019-02-22T14:35:08Z</time>
      </trkpt>
      <trkpt lat="43.6628" lon="6.18195">
        <ele>633</ele>
        <time>2019-02-22T14:35:10Z</time>
      </trkpt>
      <trkpt lat="43.6628" lon="6.18177">
        <ele>633</ele>
        <time>2019-02-22T14:35:28Z</time>
      </trkpt>
      <trkpt lat="43.66275" lon="6.18165">
        <ele>633</ele>
        <time>2019-02-22T14:35:32Z</time>
      </trkpt>
      <trkpt lat="43.66273" lon="6.1815">
        <ele>633</ele>
        <time>2019-02-22T14:35:45Z</time>
      </trkpt>
      <trkpt lat="43.6627" lon="6.18138">
        <ele>633</ele>
        <time>2019-02-22T14:35:48Z</time>
      </trkpt>
      <trkpt lat="43.66265" lon="6.18125">
        <ele>633</ele>
        <time>2019-02-22T14:35:54Z</time>
      </trkpt>
      <trkpt lat="43.66262" lon="6.18113">
        <ele>632</ele>
        <time>2019-02-22T14:35:59Z</time>
      </trkpt>
      <trkpt lat="43.66257" lon="6.18102">
        <ele>632</ele>
        <time>2019-02-22T14:36:10Z</time>
      </trkpt>
      <trkpt lat="43.66253" lon="6.18088">
        <ele>632</ele>
        <time>2019-02-22T14:36:15Z</time>
      </trkpt>
      <trkpt lat="43.66248" lon="6.18077">
        <ele>632</ele>
        <time>2019-02-22T14:36:22Z</time>
      </trkpt>
      <trkpt lat="43.66245" lon="6.18065">
        <ele>632</ele>
        <time>2019-02-22T14:36:36Z</time>
      </trkpt>
      <trkpt lat="43.66177" lon="6.17907">
        <ele>627</ele>
        <time>2019-02-22T14:38:24Z</time>
      </trkpt>
      <trkpt lat="43.66173" lon="6.1789">
        <ele>626</ele>
        <time>2019-02-22T14:38:42Z</time>
      </trkpt>
      <trkpt lat="43.66167" lon="6.17877">
        <ele>626</ele>
        <time>2019-02-22T14:38:58Z</time>
      </trkpt>
      <trkpt lat="43.66162" lon="6.17867">
        <ele>626</ele>
        <time>2019-02-22T14:39:02Z</time>
      </trkpt>
      <trkpt lat="43.66153" lon="6.17857">
        <ele>626</ele>
        <time>2019-02-22T14:39:11Z</time>
      </trkpt>
      <trkpt lat="43.66145" lon="6.17843">
        <ele>626</ele>
        <time>2019-02-22T14:39:37Z</time>
      </trkpt>
      <trkpt lat="43.6614" lon="6.1783">
        <ele>626</ele>
        <time>2019-02-22T14:39:40Z</time>
      </trkpt>
      <trkpt lat="43.66135" lon="6.17817">
        <ele>626</ele>
        <time>2019-02-22T14:39:51Z</time>
      </trkpt>
      <trkpt lat="43.6613" lon="6.17805">
        <ele>626</ele>
        <time>2019-02-22T14:39:54Z</time>
      </trkpt>
      <trkpt lat="43.66128" lon="6.17792">
        <ele>626</ele>
        <time>2019-02-22T14:39:58Z</time>
      </trkpt>
      <trkpt lat="43.66123" lon="6.17778">
        <ele>625</ele>
        <time>2019-02-22T14:40:13Z</time>
      </trkpt>
      <trkpt lat="43.6612" lon="6.17767">
        <ele>625</ele>
        <time>2019-02-22T14:40:17Z</time>
      </trkpt>
      <trkpt lat="43.66115" lon="6.17745">
        <ele>626</ele>
        <time>2019-02-22T14:41:04Z</time>
      </trkpt>
      <trkpt lat="43.6611" lon="6.17732">
        <ele>626</ele>
        <time>2019-02-22T14:41:06Z</time>
      </trkpt>
      <trkpt lat="43.66103" lon="6.17717">
        <ele>625</ele>
        <time>2019-02-22T14:41:08Z</time>
      </trkpt>
      <trkpt lat="43.66095" lon="6.17712">
        <ele>625</ele>
        <time>2019-02-22T14:41:18Z</time>
      </trkpt>
      <trkpt lat="43.66087" lon="6.17717">
        <ele>625</ele>
        <time>2019-02-22T14:41:35Z</time>
      </trkpt>
      <trkpt lat="43.66088" lon="6.1773">
        <ele>624</ele>
        <time>2019-02-22T14:41:42Z</time>
      </trkpt>
      <trkpt lat="43.6609" lon="6.17742">
        <ele>624</ele>
        <time>2019-02-22T14:41:51Z</time>
      </trkpt>
      <trkpt lat="43.6609" lon="6.17755">
        <ele>624</ele>
        <time>2019-02-22T14:42:05Z</time>
      </trkpt>
      <trkpt lat="43.6609" lon="6.1777">
        <ele>624</ele>
        <time>2019-02-22T14:42:21Z</time>
      </trkpt>
      <trkpt lat="43.6609" lon="6.17782">
        <ele>624</ele>
        <time>2019-02-22T14:42:26Z</time>
      </trkpt>
      <trkpt lat="43.66092" lon="6.17795">
        <ele>624</ele>
        <time>2019-02-22T14:42:33Z</time>
      </trkpt>
      <trkpt lat="43.66093" lon="6.17808">
        <ele>624</ele>
        <time>2019-02-22T14:42:47Z</time>
      </trkpt>
      <trkpt lat="43.66095" lon="6.17822">
        <ele>625</ele>
        <time>2019-02-22T14:42:55Z</time>
      </trkpt>
      <trkpt lat="43.66095" lon="6.17833">
        <ele>624</ele>
        <time>2019-02-22T14:43:03Z</time>
      </trkpt>
      <trkpt lat="43.66098" lon="6.1785">
        <ele>624</ele>
        <time>2019-02-22T14:43:16Z</time>
      </trkpt>
      <trkpt lat="43.66102" lon="6.17863">
        <ele>624</ele>
        <time>2019-02-22T14:43:22Z</time>
      </trkpt>
      <trkpt lat="43.66107" lon="6.17875">
        <ele>624</ele>
        <time>2019-02-22T14:43:35Z</time>
      </trkpt>
      <trkpt lat="43.66108" lon="6.1789">
        <ele>624</ele>
        <time>2019-02-22T14:43:48Z</time>
      </trkpt>
      <trkpt lat="43.6611" lon="6.17903">
        <ele>624</ele>
        <time>2019-02-22T14:43:55Z</time>
      </trkpt>
      <trkpt lat="43.66108" lon="6.17917">
        <ele>624</ele>
        <time>2019-02-22T14:44:10Z</time>
      </trkpt>
      <trkpt lat="43.66107" lon="6.1793">
        <ele>624</ele>
        <time>2019-02-22T14:44:16Z</time>
      </trkpt>
      <trkpt lat="43.66105" lon="6.17942">
        <ele>624</ele>
        <time>2019-02-22T14:44:24Z</time>
      </trkpt>
      <trkpt lat="43.66103" lon="6.17955">
        <ele>624</ele>
        <time>2019-02-22T14:44:34Z</time>
      </trkpt>
      <trkpt lat="43.66097" lon="6.17965">
        <ele>624</ele>
        <time>2019-02-22T14:44:41Z</time>
      </trkpt>
      <trkpt lat="43.66097" lon="6.17982">
        <ele>624</ele>
        <time>2019-02-22T14:45:03Z</time>
      </trkpt>
      <trkpt lat="43.66093" lon="6.17997">
        <ele>624</ele>
        <time>2019-02-22T14:45:07Z</time>
      </trkpt>
      <trkpt lat="43.6609" lon="6.1801">
        <ele>623</ele>
        <time>2019-02-22T14:45:17Z</time>
      </trkpt>
      <trkpt lat="43.66085" lon="6.18022">
        <ele>624</ele>
        <time>2019-02-22T14:45:30Z</time>
      </trkpt>
      <trkpt lat="43.6608" lon="6.18032">
        <ele>624</ele>
        <time>2019-02-22T14:45:36Z</time>
      </trkpt>
      <trkpt lat="43.66073" lon="6.18043">
        <ele>624</ele>
        <time>2019-02-22T14:45:56Z</time>
      </trkpt>
      <trkpt lat="43.66072" lon="6.18057">
        <ele>624</ele>
        <time>2019-02-22T14:46:06Z</time>
      </trkpt>
      <trkpt lat="43.6607" lon="6.18072">
        <ele>624</ele>
        <time>2019-02-22T14:46:08Z</time>
      </trkpt>
      <trkpt lat="43.66063" lon="6.18083">
        <ele>624</ele>
        <time>2019-02-22T14:46:14Z</time>
      </trkpt>
      <trkpt lat="43.6606" lon="6.18098">
        <ele>624</ele>
        <time>2019-02-22T14:46:52Z</time>
      </trkpt>
      <trkpt lat="43.66047" lon="6.18138">
        <ele>623</ele>
        <time>2019-02-22T14:47:03Z</time>
      </trkpt>
      <trkpt lat="43.6604" lon="6.1815">
        <ele>623</ele>
        <time>2019-02-22T14:47:08Z</time>
      </trkpt>
      <trkpt lat="43.66033" lon="6.18162">
        <ele>623</ele>
        <time>2019-02-22T14:47:14Z</time>
      </trkpt>
      <trkpt lat="43.66025" lon="6.18172">
        <ele>623</ele>
        <time>2019-02-22T14:47:20Z</time>
      </trkpt>
      <trkpt lat="43.66023" lon="6.18185">
        <ele>623</ele>
        <time>2019-02-22T14:47:28Z</time>
      </trkpt>
      <trkpt lat="43.66022" lon="6.18198">
        <ele>623</ele>
        <time>2019-02-22T14:47:32Z</time>
      </trkpt>
      <trkpt lat="43.6602" lon="6.1821">
        <ele>623</ele>
        <time>2019-02-22T14:47:40Z</time>
      </trkpt>
      <trkpt lat="43.66015" lon="6.18222">
        <ele>623</ele>
        <time>2019-02-22T14:47:48Z</time>
      </trkpt>
      <trkpt lat="43.66013" lon="6.18238">
        <ele>623</ele>
        <time>2019-02-22T14:48:22Z</time>
      </trkpt>
      <trkpt lat="43.66012" lon="6.18252">
        <ele>623</ele>
        <time>2019-02-22T14:48:24Z</time>
      </trkpt>
      <trkpt lat="43.6601" lon="6.18267">
        <ele>623</ele>
        <time>2019-02-22T14:48:35Z</time>
      </trkpt>
      <trkpt lat="43.66008" lon="6.18278">
        <ele>623</ele>
        <time>2019-02-22T14:48:38Z</time>
      </trkpt>
      <trkpt lat="43.66003" lon="6.18292">
        <ele>623</ele>
        <time>2019-02-22T14:48:59Z</time>
      </trkpt>
      <trkpt lat="43.65998" lon="6.18305">
        <ele>623</ele>
        <time>2019-02-22T14:49:02Z</time>
      </trkpt>
      <trkpt lat="43.65995" lon="6.1832">
        <ele>623</ele>
        <time>2019-02-22T14:49:05Z</time>
      </trkpt>
      <trkpt lat="43.65992" lon="6.18332">
        <ele>623</ele>
        <time>2019-02-22T14:49:10Z</time>
      </trkpt>
      <trkpt lat="43.6599" lon="6.18347">
        <ele>623</ele>
        <time>2019-02-22T14:49:18Z</time>
      </trkpt>
      <trkpt lat="43.65992" lon="6.18363">
        <ele>623</ele>
        <time>2019-02-22T14:49:33Z</time>
      </trkpt>
      <trkpt lat="43.65992" lon="6.1838">
        <ele>623</ele>
        <time>2019-02-22T14:49:46Z</time>
      </trkpt>
      <trkpt lat="43.65993" lon="6.18392">
        <ele>623</ele>
        <time>2019-02-22T14:49:52Z</time>
      </trkpt>
      <trkpt lat="43.6599" lon="6.18405">
        <ele>623</ele>
        <time>2019-02-22T14:49:58Z</time>
      </trkpt>
      <trkpt lat="43.65988" lon="6.1842">
        <ele>623</ele>
        <time>2019-02-22T14:50:09Z</time>
      </trkpt>
      <trkpt lat="43.65983" lon="6.18437">
        <ele>623</ele>
        <time>2019-02-22T14:50:22Z</time>
      </trkpt>
      <trkpt lat="43.65983" lon="6.18452">
        <ele>623</ele>
        <time>2019-02-22T14:50:25Z</time>
      </trkpt>
      <trkpt lat="43.65985" lon="6.18465">
        <ele>623</ele>
        <time>2019-02-22T14:50:35Z</time>
      </trkpt>
      <trkpt lat="43.65988" lon="6.1848">
        <ele>623</ele>
        <time>2019-02-22T14:50:45Z</time>
      </trkpt>
      <trkpt lat="43.65993" lon="6.18488">
        <ele>623</ele>
        <time>2019-02-22T14:50:52Z</time>
      </trkpt>
      <trkpt lat="43.66" lon="6.18503">
        <ele>624</ele>
        <time>2019-02-22T14:51:18Z</time>
      </trkpt>
      <trkpt lat="43.66003" lon="6.18515">
        <ele>625</ele>
        <time>2019-02-22T14:51:25Z</time>
      </trkpt>
      <trkpt lat="43.66008" lon="6.18527">
        <ele>625</ele>
        <time>2019-02-22T14:51:28Z</time>
      </trkpt>
      <trkpt lat="43.66012" lon="6.18538">
        <ele>625</ele>
        <time>2019-02-22T14:51:34Z</time>
      </trkpt>
      <trkpt lat="43.66008" lon="6.18553">
        <ele>625</ele>
        <time>2019-02-22T14:52:09Z</time>
      </trkpt>
      <trkpt lat="43.66007" lon="6.18567">
        <ele>625</ele>
        <time>2019-02-22T14:52:13Z</time>
      </trkpt>
      <trkpt lat="43.66005" lon="6.18582">
        <ele>625</ele>
        <time>2019-02-22T14:52:18Z</time>
      </trkpt>
      <trkpt lat="43.66002" lon="6.18595">
        <ele>625</ele>
        <time>2019-02-22T14:52:23Z</time>
      </trkpt>
      <trkpt lat="43.65998" lon="6.18607">
        <ele>624</ele>
        <time>2019-02-22T14:52:32Z</time>
      </trkpt>
      <trkpt lat="43.65998" lon="6.1862">
        <ele>624</ele>
        <time>2019-02-22T14:52:37Z</time>
      </trkpt>
      <trkpt lat="43.65993" lon="6.18632">
        <ele>624</ele>
        <time>2019-02-22T14:52:41Z</time>
      </trkpt>
      <trkpt lat="43.65995" lon="6.18645">
        <ele>623</ele>
        <time>2019-02-22T14:52:54Z</time>
      </trkpt>
      <trkpt lat="43.65995" lon="6.18658">
        <ele>622</ele>
        <time>2019-02-22T14:52:58Z</time>
      </trkpt>
      <trkpt lat="43.6599" lon="6.1867">
        <ele>622</ele>
        <time>2019-02-22T14:53:16Z</time>
      </trkpt>
      <trkpt lat="43.6598" lon="6.18685">
        <ele>622</ele>
        <time>2019-02-22T14:53:43Z</time>
      </trkpt>
      <trkpt lat="43.65972" lon="6.18693">
        <ele>622</ele>
        <time>2019-02-22T14:53:46Z</time>
      </trkpt>
      <trkpt lat="43.65962" lon="6.18698">
        <ele>622</ele>
        <time>2019-02-22T14:53:50Z</time>
      </trkpt>
      <trkpt lat="43.65957" lon="6.18708">
        <ele>622</ele>
        <time>2019-02-22T14:54:02Z</time>
      </trkpt>
      <trkpt lat="43.65948" lon="6.18717">
        <ele>622</ele>
        <time>2019-02-22T14:54:04Z</time>
      </trkpt>
      <trkpt lat="43.65942" lon="6.18727">
        <ele>621</ele>
        <time>2019-02-22T14:54:10Z</time>
      </trkpt>
      <trkpt lat="43.65935" lon="6.18743">
        <ele>621</ele>
        <time>2019-02-22T14:54:38Z</time>
      </trkpt>
      <trkpt lat="43.6593" lon="6.1876">
        <ele>622</ele>
        <time>2019-02-22T14:54:49Z</time>
      </trkpt>
      <trkpt lat="43.65923" lon="6.1877">
        <ele>622</ele>
        <time>2019-02-22T14:54:51Z</time>
      </trkpt>
      <trkpt lat="43.65917" lon="6.18787">
        <ele>621</ele>
        <time>2019-02-22T14:55:02Z</time>
      </trkpt>
      <trkpt lat="43.65913" lon="6.18798">
        <ele>621</ele>
        <time>2019-02-22T14:55:06Z</time>
      </trkpt>
      <trkpt lat="43.6591" lon="6.1881">
        <ele>621</ele>
        <time>2019-02-22T14:55:15Z</time>
      </trkpt>
      <trkpt lat="43.65905" lon="6.18822">
        <ele>620</ele>
        <time>2019-02-22T14:55:34Z</time>
      </trkpt>
      <trkpt lat="43.65898" lon="6.18833">
        <ele>620</ele>
        <time>2019-02-22T14:55:39Z</time>
      </trkpt>
      <trkpt lat="43.65892" lon="6.18845">
        <ele>620</ele>
        <time>2019-02-22T14:55:43Z</time>
      </trkpt>
      <trkpt lat="43.65887" lon="6.18855">
        <ele>620</ele>
        <time>2019-02-22T14:55:49Z</time>
      </trkpt>
      <trkpt lat="43.6588" lon="6.18865">
        <ele>620</ele>
        <time>2019-02-22T14:56:19Z</time>
      </trkpt>
      <trkpt lat="43.65872" lon="6.18878">
        <ele>620</ele>
        <time>2019-02-22T14:56:22Z</time>
      </trkpt>
      <trkpt lat="43.65863" lon="6.18893">
        <ele>620</ele>
        <time>2019-02-22T14:56:24Z</time>
      </trkpt>
      <trkpt lat="43.65857" lon="6.18903">
        <ele>620</ele>
        <time>2019-02-22T14:56:28Z</time>
      </trkpt>
      <trkpt lat="43.6585" lon="6.18912">
        <ele>620</ele>
        <time>2019-02-22T14:56:37Z</time>
      </trkpt>
      <trkpt lat="43.65845" lon="6.18923">
        <ele>620</ele>
        <time>2019-02-22T14:56:50Z</time>
      </trkpt>
      <trkpt lat="43.65837" lon="6.18935">
        <ele>620</ele>
        <time>2019-02-22T14:56:55Z</time>
      </trkpt>
      <trkpt lat="43.65832" lon="6.18945">
        <ele>619</ele>
        <time>2019-02-22T14:57:01Z</time>
      </trkpt>
      <trkpt lat="43.65828" lon="6.18958">
        <ele>619</ele>
        <time>2019-02-22T14:57:13Z</time>
      </trkpt>
      <trkpt lat="43.65825" lon="6.18973">
        <ele>619</ele>
        <time>2019-02-22T14:57:23Z</time>
      </trkpt>
      <trkpt lat="43.6582" lon="6.18985">
        <ele>617</ele>
        <time>2019-02-22T14:57:36Z</time>
      </trkpt>
      <trkpt lat="43.65818" lon="6.18998">
        <ele>616</ele>
        <time>2019-02-22T14:57:47Z</time>
      </trkpt>
      <trkpt lat="43.65813" lon="6.19012">
        <ele>616</ele>
        <time>2019-02-22T14:57:51Z</time>
      </trkpt>
      <trkpt lat="43.65808" lon="6.1902">
        <ele>615</ele>
        <time>2019-02-22T14:58:47Z</time>
      </trkpt>
      <trkpt lat="43.658" lon="6.1903">
        <ele>615</ele>
        <time>2019-02-22T14:58:49Z</time>
      </trkpt>
      <trkpt lat="43.65793" lon="6.19042">
        <ele>615</ele>
        <time>2019-02-22T14:58:52Z</time>
      </trkpt>
      <trkpt lat="43.65785" lon="6.19055">
        <ele>615</ele>
        <time>2019-02-22T14:58:55Z</time>
      </trkpt>
      <trkpt lat="43.65775" lon="6.19067">
        <ele>615</ele>
        <time>2019-02-22T14:59:00Z</time>
      </trkpt>
      <trkpt lat="43.65768" lon="6.19078">
        <ele>615</ele>
        <time>2019-02-22T14:59:04Z</time>
      </trkpt>
      <trkpt lat="43.6576" lon="6.19088">
        <ele>615</ele>
        <time>2019-02-22T14:59:18Z</time>
      </trkpt>
      <trkpt lat="43.65753" lon="6.19098">
        <ele>614</ele>
        <time>2019-02-22T14:59:21Z</time>
      </trkpt>
      <trkpt lat="43.65747" lon="6.19113">
        <ele>614</ele>
        <time>2019-02-22T14:59:34Z</time>
      </trkpt>
      <trkpt lat="43.6574" lon="6.19123">
        <ele>614</ele>
        <time>2019-02-22T14:59:37Z</time>
      </trkpt>
      <trkpt lat="43.65732" lon="6.19133">
        <ele>614</ele>
        <time>2019-02-22T14:59:41Z</time>
      </trkpt>
      <trkpt lat="43.65728" lon="6.19145">
        <ele>614</ele>
        <time>2019-02-22T14:59:51Z</time>
      </trkpt>
      <trkpt lat="43.65722" lon="6.19153">
        <ele>614</ele>
        <time>2019-02-22T14:59:56Z</time>
      </trkpt>
      <trkpt lat="43.65715" lon="6.19165">
        <ele>613</ele>
        <time>2019-02-22T15:00:05Z</time>
      </trkpt>
      <trkpt lat="43.65707" lon="6.19173">
        <ele>613</ele>
        <time>2019-02-22T15:01:07Z</time>
      </trkpt>
      <trkpt lat="43.65702" lon="6.1916">
        <ele>612</ele>
        <time>2019-02-22T15:07:10Z</time>
      </trkpt>
      <trkpt lat="43.65693" lon="6.19143">
        <ele>611</ele>
        <time>2019-02-22T15:07:28Z</time>
      </trkpt>
      <trkpt lat="43.65685" lon="6.19133">
        <ele>610</ele>
        <time>2019-02-22T15:07:36Z</time>
      </trkpt>
      <trkpt lat="43.65677" lon="6.19127">
        <ele>610</ele>
        <time>2019-02-22T15:07:52Z</time>
      </trkpt>
      <trkpt lat="43.6567" lon="6.19115">
        <ele>609</ele>
        <time>2019-02-22T15:08:11Z</time>
      </trkpt>
      <trkpt lat="43.65662" lon="6.19105">
        <ele>609</ele>
        <time>2019-02-22T15:08:15Z</time>
      </trkpt>
      <trkpt lat="43.65653" lon="6.19098">
        <ele>609</ele>
        <time>2019-02-22T15:08:27Z</time>
      </trkpt>
      <trkpt lat="43.65645" lon="6.19092">
        <ele>607</ele>
        <time>2019-02-22T15:10:02Z</time>
      </trkpt>
      <trkpt lat="43.65638" lon="6.1908">
        <ele>603</ele>
        <time>2019-02-22T15:11:11Z</time>
      </trkpt>
      <trkpt lat="43.6563" lon="6.19067">
        <ele>602</ele>
        <time>2019-02-22T15:11:17Z</time>
      </trkpt>
      <trkpt lat="43.6562" lon="6.1906">
        <ele>601</ele>
        <time>2019-02-22T15:11:26Z</time>
      </trkpt>
      <trkpt lat="43.65615" lon="6.19048">
        <ele>605</ele>
        <time>2019-02-22T15:12:10Z</time>
      </trkpt>
      <trkpt lat="43.6551" lon="6.18945">
        <ele>597</ele>
        <time>2019-02-22T15:13:55Z</time>
      </trkpt>
      <trkpt lat="43.65505" lon="6.18933">
        <ele>594</ele>
        <time>2019-02-22T15:14:26Z</time>
      </trkpt>
      <trkpt lat="43.65497" lon="6.1892">
        <ele>596</ele>
        <time>2019-02-22T15:14:50Z</time>
      </trkpt>
      <trkpt lat="43.6549" lon="6.1891">
        <ele>597</ele>
        <time>2019-02-22T15:14:54Z</time>
      </trkpt>
      <trkpt lat="43.65482" lon="6.18902">
        <ele>599</ele>
        <time>2019-02-22T15:15:06Z</time>
      </trkpt>
      <trkpt lat="43.65473" lon="6.18895">
        <ele>599</ele>
        <time>2019-02-22T15:15:14Z</time>
      </trkpt>
      <trkpt lat="43.65465" lon="6.18887">
        <ele>600</ele>
        <time>2019-02-22T15:15:29Z</time>
      </trkpt>
      <trkpt lat="43.65458" lon="6.18877">
        <ele>601</ele>
        <time>2019-02-22T15:15:51Z</time>
      </trkpt>
      <trkpt lat="43.65453" lon="6.18867">
        <ele>602</ele>
        <time>2019-02-22T15:16:03Z</time>
      </trkpt>
      <trkpt lat="43.65445" lon="6.18858">
        <ele>602</ele>
        <time>2019-02-22T15:16:08Z</time>
      </trkpt>
      <trkpt lat="43.65437" lon="6.18852">
        <ele>603</ele>
        <time>2019-02-22T15:16:19Z</time>
      </trkpt>
      <trkpt lat="43.6543" lon="6.18843">
        <ele>604</ele>
        <time>2019-02-22T15:16:27Z</time>
      </trkpt>
      <trkpt lat="43.65418" lon="6.18837">
        <ele>605</ele>
        <time>2019-02-22T15:16:39Z</time>
      </trkpt>
      <trkpt lat="43.6541" lon="6.18827">
        <ele>607</ele>
        <time>2019-02-22T15:16:54Z</time>
      </trkpt>
      <trkpt lat="43.65403" lon="6.1882">
        <ele>607</ele>
        <time>2019-02-22T15:16:58Z</time>
      </trkpt>
      <trkpt lat="43.65395" lon="6.18812">
        <ele>608</ele>
        <time>2019-02-22T15:17:07Z</time>
      </trkpt>
      <trkpt lat="43.65393" lon="6.188">
        <ele>609</ele>
        <time>2019-02-22T15:17:23Z</time>
      </trkpt>
      <trkpt lat="43.65385" lon="6.18792">
        <ele>609</ele>
        <time>2019-02-22T15:17:30Z</time>
      </trkpt>
      <trkpt lat="43.65377" lon="6.18787">
        <ele>610</ele>
        <time>2019-02-22T15:17:36Z</time>
      </trkpt>
      <trkpt lat="43.65372" lon="6.18773">
        <ele>611</ele>
        <time>2019-02-22T15:17:52Z</time>
      </trkpt>
      <trkpt lat="43.65353" lon="6.18748">
        <ele>615</ele>
        <time>2019-02-22T15:18:35Z</time>
      </trkpt>
      <trkpt lat="43.65345" lon="6.1874">
        <ele>616</ele>
        <time>2019-02-22T15:18:45Z</time>
      </trkpt>
      <trkpt lat="43.65337" lon="6.18735">
        <ele>616</ele>
        <time>2019-02-22T15:18:55Z</time>
      </trkpt>
      <trkpt lat="43.65328" lon="6.18728">
        <ele>617</ele>
        <time>2019-02-22T15:19:00Z</time>
      </trkpt>
      <trkpt lat="43.6532" lon="6.18727">
        <ele>617</ele>
        <time>2019-02-22T15:19:08Z</time>
      </trkpt>
      <trkpt lat="43.65315" lon="6.18715">
        <ele>619</ele>
        <time>2019-02-22T15:19:36Z</time>
      </trkpt>
      <trkpt lat="43.65308" lon="6.18705">
        <ele>620</ele>
        <time>2019-02-22T15:19:44Z</time>
      </trkpt>
      <trkpt lat="43.65298" lon="6.18698">
        <ele>621</ele>
        <time>2019-02-22T15:19:52Z</time>
      </trkpt>
      <trkpt lat="43.6529" lon="6.18692">
        <ele>621</ele>
        <time>2019-02-22T15:19:58Z</time>
      </trkpt>
      <trkpt lat="43.65285" lon="6.18682">
        <ele>622</ele>
        <time>2019-02-22T15:20:11Z</time>
      </trkpt>
      <trkpt lat="43.65278" lon="6.1867">
        <ele>623</ele>
        <time>2019-02-22T15:20:26Z</time>
      </trkpt>
      <trkpt lat="43.65268" lon="6.18665">
        <ele>623</ele>
        <time>2019-02-22T15:20:31Z</time>
      </trkpt>
      <trkpt lat="43.65262" lon="6.18657">
        <ele>624</ele>
        <time>2019-02-22T15:20:38Z</time>
      </trkpt>
      <trkpt lat="43.65255" lon="6.18645">
        <ele>626</ele>
        <time>2019-02-22T15:21:10Z</time>
      </trkpt>
      <trkpt lat="43.65248" lon="6.18633">
        <ele>627</ele>
        <time>2019-02-22T15:21:18Z</time>
      </trkpt>
      <trkpt lat="43.65238" lon="6.18627">
        <ele>627</ele>
        <time>2019-02-22T15:21:23Z</time>
      </trkpt>
      <trkpt lat="43.6523" lon="6.18615">
        <ele>628</ele>
        <time>2019-02-22T15:21:34Z</time>
      </trkpt>
      <trkpt lat="43.65223" lon="6.18605">
        <ele>629</ele>
        <time>2019-02-22T15:21:47Z</time>
      </trkpt>
      <trkpt lat="43.65215" lon="6.186">
        <ele>629</ele>
        <time>2019-02-22T15:21:53Z</time>
      </trkpt>
      <trkpt lat="43.65207" lon="6.1859">
        <ele>629</ele>
        <time>2019-02-22T15:22:24Z</time>
      </trkpt>
      <trkpt lat="43.65202" lon="6.18577">
        <ele>629</ele>
        <time>2019-02-22T15:22:44Z</time>
      </trkpt>
      <trkpt lat="43.65195" lon="6.18565">
        <ele>629</ele>
        <time>2019-02-22T15:22:56Z</time>
      </trkpt>
      <trkpt lat="43.65197" lon="6.1855">
        <ele>630</ele>
        <time>2019-02-22T15:23:50Z</time>
      </trkpt>
      <trkpt lat="43.65195" lon="6.18533">
        <ele>630</ele>
        <time>2019-02-22T15:26:38Z</time>
      </trkpt>
      <trkpt lat="43.65197" lon="6.18547">
        <ele>629</ele>
        <time>2019-02-22T15:32:42Z</time>
      </trkpt>
      <trkpt lat="43.65263" lon="6.18677">
        <ele>623</ele>
        <time>2019-02-22T15:34:15Z</time>
      </trkpt>
      <trkpt lat="43.65273" lon="6.18677">
        <ele>622</ele>
        <time>2019-02-22T15:34:54Z</time>
      </trkpt>
      <trkpt lat="43.65283" lon="6.18683">
        <ele>621</ele>
        <time>2019-02-22T15:36:48Z</time>
      </trkpt>
      <trkpt lat="43.65287" lon="6.18693">
        <ele>620</ele>
        <time>2019-02-22T15:36:57Z</time>
      </trkpt>
      <trkpt lat="43.65295" lon="6.18703">
        <ele>620</ele>
        <time>2019-02-22T15:37:01Z</time>
      </trkpt>
      <trkpt lat="43.653" lon="6.18713">
        <ele>618</ele>
        <time>2019-02-22T15:37:15Z</time>
      </trkpt>
      <trkpt lat="43.65308" lon="6.18722">
        <ele>617</ele>
        <time>2019-02-22T15:37:29Z</time>
      </trkpt>
      <trkpt lat="43.65315" lon="6.18727">
        <ele>616</ele>
        <time>2019-02-22T15:37:41Z</time>
      </trkpt>
      <trkpt lat="43.65323" lon="6.18737">
        <ele>611</ele>
        <time>2019-02-22T15:38:38Z</time>
      </trkpt>
      <trkpt lat="43.65338" lon="6.1876">
        <ele>610</ele>
        <time>2019-02-22T15:38:47Z</time>
      </trkpt>
      <trkpt lat="43.65347" lon="6.1877">
        <ele>610</ele>
        <time>2019-02-22T15:38:56Z</time>
      </trkpt>
      <trkpt lat="43.65355" lon="6.18782">
        <ele>610</ele>
        <time>2019-02-22T15:38:59Z</time>
      </trkpt>
      <trkpt lat="43.65362" lon="6.18793">
        <ele>609</ele>
        <time>2019-02-22T15:39:14Z</time>
      </trkpt>
      <trkpt lat="43.6537" lon="6.18803">
        <ele>607</ele>
        <time>2019-02-22T15:39:56Z</time>
      </trkpt>
      <trkpt lat="43.65378" lon="6.18813">
        <ele>605</ele>
        <time>2019-02-22T15:40:39Z</time>
      </trkpt>
      <trkpt lat="43.65385" lon="6.1882">
        <ele>605</ele>
        <time>2019-02-22T15:40:42Z</time>
      </trkpt>
      <trkpt lat="43.6541" lon="6.1885">
        <ele>601</ele>
        <time>2019-02-22T15:41:12Z</time>
      </trkpt>
      <trkpt lat="43.65417" lon="6.18857">
        <ele>601</ele>
        <time>2019-02-22T15:41:17Z</time>
      </trkpt>
      <trkpt lat="43.65427" lon="6.18865">
        <ele>601</ele>
        <time>2019-02-22T15:41:21Z</time>
      </trkpt>
      <trkpt lat="43.65437" lon="6.18875">
        <ele>600</ele>
        <time>2019-02-22T15:41:24Z</time>
      </trkpt>
      <trkpt lat="43.65447" lon="6.18882">
        <ele>600</ele>
        <time>2019-02-22T15:41:27Z</time>
      </trkpt>
      <trkpt lat="43.65455" lon="6.18888">
        <ele>599</ele>
        <time>2019-02-22T15:41:32Z</time>
      </trkpt>
      <trkpt lat="43.65458" lon="6.18903">
        <ele>596</ele>
        <time>2019-02-22T15:44:23Z</time>
      </trkpt>
      <trkpt lat="43.65465" lon="6.18913">
        <ele>595</ele>
        <time>2019-02-22T15:44:28Z</time>
      </trkpt>
      <trkpt lat="43.6547" lon="6.18927">
        <ele>594</ele>
        <time>2019-02-22T15:44:54Z</time>
      </trkpt>
      <trkpt lat="43.65472" lon="6.1894">
        <ele>594</ele>
        <time>2019-02-22T15:44:57Z</time>
      </trkpt>
      <trkpt lat="43.65472" lon="6.18955">
        <ele>593</ele>
        <time>2019-02-22T15:45:09Z</time>
      </trkpt>
      <trkpt lat="43.65467" lon="6.18967">
        <ele>593</ele>
        <time>2019-02-22T15:45:15Z</time>
      </trkpt>
      <trkpt lat="43.65465" lon="6.1898">
        <ele>593</ele>
        <time>2019-02-22T15:45:19Z</time>
      </trkpt>
      <trkpt lat="43.65462" lon="6.18995">
        <ele>593</ele>
        <time>2019-02-22T15:45:48Z</time>
      </trkpt>
      <trkpt lat="43.65457" lon="6.19008">
        <ele>593</ele>
        <time>2019-02-22T15:45:50Z</time>
      </trkpt>
      <trkpt lat="43.65452" lon="6.19023">
        <ele>592</ele>
        <time>2019-02-22T15:46:12Z</time>
      </trkpt>
      <trkpt lat="43.65443" lon="6.19035">
        <ele>592</ele>
        <time>2019-02-22T15:46:15Z</time>
      </trkpt>
      <trkpt lat="43.65435" lon="6.19042">
        <ele>593</ele>
        <time>2019-02-22T15:46:22Z</time>
      </trkpt>
      <trkpt lat="43.65425" lon="6.1905">
        <ele>593</ele>
        <time>2019-02-22T15:46:36Z</time>
      </trkpt>
      <trkpt lat="43.65418" lon="6.19058">
        <ele>592</ele>
        <time>2019-02-22T15:46:40Z</time>
      </trkpt>
      <trkpt lat="43.65408" lon="6.19065">
        <ele>592</ele>
        <time>2019-02-22T15:46:52Z</time>
      </trkpt>
      <trkpt lat="43.65403" lon="6.19077">
        <ele>592</ele>
        <time>2019-02-22T15:46:59Z</time>
      </trkpt>
      <trkpt lat="43.65397" lon="6.19087">
        <ele>591</ele>
        <time>2019-02-22T15:47:13Z</time>
      </trkpt>
      <trkpt lat="43.65393" lon="6.19103">
        <ele>591</ele>
        <time>2019-02-22T15:47:28Z</time>
      </trkpt>
      <trkpt lat="43.6539" lon="6.19115">
        <ele>591</ele>
        <time>2019-02-22T15:47:32Z</time>
      </trkpt>
      <trkpt lat="43.6539" lon="6.19127">
        <ele>591</ele>
        <time>2019-02-22T15:47:37Z</time>
      </trkpt>
      <trkpt lat="43.65378" lon="6.1916">
        <ele>590</ele>
        <time>2019-02-22T15:48:27Z</time>
      </trkpt>
      <trkpt lat="43.6537" lon="6.19182">
        <ele>589</ele>
        <time>2019-02-22T15:49:18Z</time>
      </trkpt>
      <trkpt lat="43.65363" lon="6.19195">
        <ele>589</ele>
        <time>2019-02-22T15:49:20Z</time>
      </trkpt>
      <trkpt lat="43.65362" lon="6.19215">
        <ele>589</ele>
        <time>2019-02-22T15:49:22Z</time>
      </trkpt>
      <trkpt lat="43.6536" lon="6.19228">
        <ele>589</ele>
        <time>2019-02-22T15:49:24Z</time>
      </trkpt>
      <trkpt lat="43.65343" lon="6.19263">
        <ele>588</ele>
        <time>2019-02-22T15:49:35Z</time>
      </trkpt>
      <trkpt lat="43.65338" lon="6.19278">
        <ele>588</ele>
        <time>2019-02-22T15:49:40Z</time>
      </trkpt>
      <trkpt lat="43.65333" lon="6.19292">
        <ele>588</ele>
        <time>2019-02-22T15:49:47Z</time>
      </trkpt>
      <trkpt lat="43.65327" lon="6.19302">
        <ele>588</ele>
        <time>2019-02-22T15:49:54Z</time>
      </trkpt>
      <trkpt lat="43.65323" lon="6.19328">
        <ele>587</ele>
        <time>2019-02-22T15:50:27Z</time>
      </trkpt>
      <trkpt lat="43.65318" lon="6.19343">
        <ele>587</ele>
        <time>2019-02-22T15:50:32Z</time>
      </trkpt>
      <trkpt lat="43.65312" lon="6.19353">
        <ele>588</ele>
        <time>2019-02-22T15:50:41Z</time>
      </trkpt>
      <trkpt lat="43.6531" lon="6.19387">
        <ele>586</ele>
        <time>2019-02-22T15:51:20Z</time>
      </trkpt>
      <trkpt lat="43.6531" lon="6.19425">
        <ele>585</ele>
        <time>2019-02-22T15:51:36Z</time>
      </trkpt>
      <trkpt lat="43.65307" lon="6.19437">
        <ele>585</ele>
        <time>2019-02-22T15:51:43Z</time>
      </trkpt>
      <trkpt lat="43.65303" lon="6.1945">
        <ele>585</ele>
        <time>2019-02-22T15:51:57Z</time>
      </trkpt>
      <trkpt lat="43.65297" lon="6.19462">
        <ele>584</ele>
        <time>2019-02-22T15:52:02Z</time>
      </trkpt>
      <trkpt lat="43.65288" lon="6.19477">
        <ele>580</ele>
        <time>2019-02-22T15:52:42Z</time>
      </trkpt>
      <trkpt lat="43.65282" lon="6.19485">
        <ele>580</ele>
        <time>2019-02-22T15:52:45Z</time>
      </trkpt>
      <trkpt lat="43.65273" lon="6.19497">
        <ele>580</ele>
        <time>2019-02-22T15:52:48Z</time>
      </trkpt>
      <trkpt lat="43.65268" lon="6.19508">
        <ele>580</ele>
        <time>2019-02-22T15:52:54Z</time>
      </trkpt>
      <trkpt lat="43.65262" lon="6.19518">
        <ele>580</ele>
        <time>2019-02-22T15:53:06Z</time>
      </trkpt>
      <trkpt lat="43.65253" lon="6.1953">
        <ele>579</ele>
        <time>2019-02-22T15:53:19Z</time>
      </trkpt>
      <trkpt lat="43.65247" lon="6.19543">
        <ele>579</ele>
        <time>2019-02-22T15:53:37Z</time>
      </trkpt>
      <trkpt lat="43.6524" lon="6.19557">
        <ele>579</ele>
        <time>2019-02-22T15:53:41Z</time>
      </trkpt>
      <trkpt lat="43.65233" lon="6.19563">
        <ele>579</ele>
        <time>2019-02-22T15:53:46Z</time>
      </trkpt>
      <trkpt lat="43.65225" lon="6.1957">
        <ele>579</ele>
        <time>2019-02-22T15:53:55Z</time>
      </trkpt>
      <trkpt lat="43.65217" lon="6.19575">
        <ele>578</ele>
        <time>2019-02-22T15:54:03Z</time>
      </trkpt>
      <trkpt lat="43.65205" lon="6.19587">
        <ele>578</ele>
        <time>2019-02-22T15:54:28Z</time>
      </trkpt>
      <trkpt lat="43.65197" lon="6.19592">
        <ele>578</ele>
        <time>2019-02-22T15:54:35Z</time>
      </trkpt>
      <trkpt lat="43.65197" lon="6.19607">
        <ele>578</ele>
        <time>2019-02-22T15:55:13Z</time>
      </trkpt>
      <trkpt lat="43.65188" lon="6.19615">
        <ele>582</ele>
        <time>2019-02-22T15:57:22Z</time>
      </trkpt>
      <trkpt lat="43.65128" lon="6.19747">
        <ele>577</ele>
        <time>2019-02-22T15:59:06Z</time>
      </trkpt>
      <trkpt lat="43.6512" lon="6.19753">
        <ele>575</ele>
        <time>2019-02-22T15:59:39Z</time>
      </trkpt>
      <trkpt lat="43.6511" lon="6.19757">
        <ele>574</ele>
        <time>2019-02-22T15:59:43Z</time>
      </trkpt>
      <trkpt lat="43.65098" lon="6.1975">
        <ele>573</ele>
        <time>2019-02-22T16:00:11Z</time>
      </trkpt>
      <trkpt lat="43.6509" lon="6.19745">
        <ele>571</ele>
        <time>2019-02-22T16:00:37Z</time>
      </trkpt>
      <trkpt lat="43.65078" lon="6.19747">
        <ele>571</ele>
        <time>2019-02-22T16:00:41Z</time>
      </trkpt>
      <trkpt lat="43.65068" lon="6.19748">
        <ele>571</ele>
        <time>2019-02-22T16:00:45Z</time>
      </trkpt>
      <trkpt lat="43.65018" lon="6.1985">
        <ele>569</ele>
        <time>2019-02-22T16:02:30Z</time>
      </trkpt>
      <trkpt lat="43.65022" lon="6.19865">
        <ele>569</ele>
        <time>2019-02-22T16:02:39Z</time>
      </trkpt>
      <trkpt lat="43.65023" lon="6.19878">
        <ele>569</ele>
        <time>2019-02-22T16:02:51Z</time>
      </trkpt>
      <trkpt lat="43.65025" lon="6.19892">
        <ele>568</ele>
        <time>2019-02-22T16:03:19Z</time>
      </trkpt>
      <trkpt lat="43.65022" lon="6.19903">
        <ele>568</ele>
        <time>2019-02-22T16:03:25Z</time>
      </trkpt>
      <trkpt lat="43.65012" lon="6.19917">
        <ele>566</ele>
        <time>2019-02-22T16:03:50Z</time>
      </trkpt>
      <trkpt lat="43.65005" lon="6.19927">
        <ele>566</ele>
        <time>2019-02-22T16:04:06Z</time>
      </trkpt>
      <trkpt lat="43.64985" lon="6.19963">
        <ele>565</ele>
        <time>2019-02-22T16:04:30Z</time>
      </trkpt>
      <trkpt lat="43.6498" lon="6.19977">
        <ele>565</ele>
        <time>2019-02-22T16:04:39Z</time>
      </trkpt>
      <trkpt lat="43.64973" lon="6.19987">
        <ele>564</ele>
        <time>2019-02-22T16:04:55Z</time>
      </trkpt>
      <trkpt lat="43.64968" lon="6.2">
        <ele>563</ele>
        <time>2019-02-22T16:05:10Z</time>
      </trkpt>
      <trkpt lat="43.6496" lon="6.20003">
        <ele>562</ele>
        <time>2019-02-22T16:05:35Z</time>
      </trkpt>
      <trkpt lat="43.64937" lon="6.20003">
        <ele>561</ele>
        <time>2019-02-22T16:05:49Z</time>
      </trkpt>
      <trkpt lat="43.64927" lon="6.20012">
        <ele>561</ele>
        <time>2019-02-22T16:05:55Z</time>
      </trkpt>
      <trkpt lat="43.6491" lon="6.20017">
        <ele>560</ele>
        <time>2019-02-22T16:06:15Z</time>
      </trkpt>
      <trkpt lat="43.64902" lon="6.20027">
        <ele>559</ele>
        <time>2019-02-22T16:06:33Z</time>
      </trkpt>
      <trkpt lat="43.64892" lon="6.20032">
        <ele>559</ele>
        <time>2019-02-22T16:06:36Z</time>
      </trkpt>
      <trkpt lat="43.64885" lon="6.20038">
        <ele>559</ele>
        <time>2019-02-22T16:06:48Z</time>
      </trkpt>
      <trkpt lat="43.64882" lon="6.20055">
        <ele>559</ele>
        <time>2019-02-22T16:06:58Z</time>
      </trkpt>
      <trkpt lat="43.64872" lon="6.20067">
        <ele>558</ele>
        <time>2019-02-22T16:07:15Z</time>
      </trkpt>
      <trkpt lat="43.64867" lon="6.20077">
        <ele>558</ele>
        <time>2019-02-22T16:07:25Z</time>
      </trkpt>
      <trkpt lat="43.6486" lon="6.20087">
        <ele>557</ele>
        <time>2019-02-22T16:07:40Z</time>
      </trkpt>
      <trkpt lat="43.64858" lon="6.20098">
        <ele>557</ele>
        <time>2019-02-22T16:07:45Z</time>
      </trkpt>
      <trkpt lat="43.64852" lon="6.2011">
        <ele>557</ele>
        <time>2019-02-22T16:07:56Z</time>
      </trkpt>
      <trkpt lat="43.64842" lon="6.2012">
        <ele>557</ele>
        <time>2019-02-22T16:08:27Z</time>
      </trkpt>
      <trkpt lat="43.64835" lon="6.20128">
        <ele>557</ele>
        <time>2019-02-22T16:08:30Z</time>
      </trkpt>
      <trkpt lat="43.64837" lon="6.20142">
        <ele>557</ele>
        <time>2019-02-22T16:08:54Z</time>
      </trkpt>
      <trkpt lat="43.64812" lon="6.20128">
        <ele>555</ele>
        <time>2019-02-22T16:12:48Z</time>
      </trkpt>
      <trkpt lat="43.64687" lon="6.20277">
        <ele>551</ele>
        <time>2019-02-22T16:15:54Z</time>
      </trkpt>
      <trkpt lat="43.64683" lon="6.20263">
        <ele>550</ele>
        <time>2019-02-22T16:16:06Z</time>
      </trkpt>
      <trkpt lat="43.6468" lon="6.2025">
        <ele>550</ele>
        <time>2019-02-22T16:17:05Z</time>
      </trkpt>
      <trkpt lat="43.64672" lon="6.20253">
        <ele>551</ele>
        <time>2019-02-22T16:17:51Z</time>
      </trkpt>
      <trkpt lat="43.6466" lon="6.20253">
        <ele>550</ele>
        <time>2019-02-22T16:17:54Z</time>
      </trkpt>
      <trkpt lat="43.6465" lon="6.2025">
        <ele>550</ele>
        <time>2019-02-22T16:18:07Z</time>
      </trkpt>
      <trkpt lat="43.64643" lon="6.2024">
        <ele>549</ele>
        <time>2019-02-22T16:18:18Z</time>
      </trkpt>
      <trkpt lat="43.64638" lon="6.20228">
        <ele>549</ele>
        <time>2019-02-22T16:18:30Z</time>
      </trkpt>
      <trkpt lat="43.64633" lon="6.2021">
        <ele>548</ele>
        <time>2019-02-22T16:18:55Z</time>
      </trkpt>
      <trkpt lat="43.64627" lon="6.20195">
        <ele>548</ele>
        <time>2019-02-22T16:19:05Z</time>
      </trkpt>
      <trkpt lat="43.64615" lon="6.20178">
        <ele>548</ele>
        <time>2019-02-22T16:19:10Z</time>
      </trkpt>
      <trkpt lat="43.64607" lon="6.20172">
        <ele>547</ele>
        <time>2019-02-22T16:19:14Z</time>
      </trkpt>
      <trkpt lat="43.646" lon="6.20158">
        <ele>546</ele>
        <time>2019-02-22T16:19:30Z</time>
      </trkpt>
      <trkpt lat="43.64593" lon="6.20148">
        <ele>546</ele>
        <time>2019-02-22T16:19:34Z</time>
      </trkpt>
      <trkpt lat="43.64577" lon="6.20105">
        <ele>543</ele>
        <time>2019-02-22T16:20:18Z</time>
      </trkpt>
      <trkpt lat="43.6457" lon="6.20097">
        <ele>543</ele>
        <time>2019-02-22T16:20:23Z</time>
      </trkpt>
      <trkpt lat="43.64562" lon="6.20087">
        <ele>542</ele>
        <time>2019-02-22T16:20:32Z</time>
      </trkpt>
      <trkpt lat="43.64553" lon="6.20083">
        <ele>541</ele>
        <time>2019-02-22T16:20:36Z</time>
      </trkpt>
      <trkpt lat="43.64538" lon="6.20077">
        <ele>542</ele>
        <time>2019-02-22T16:20:49Z</time>
      </trkpt>
      <trkpt lat="43.64525" lon="6.20073">
        <ele>541</ele>
        <time>2019-02-22T16:21:02Z</time>
      </trkpt>
      <trkpt lat="43.64517" lon="6.20072">
        <ele>541</ele>
        <time>2019-02-22T16:21:06Z</time>
      </trkpt>
      <trkpt lat="43.64507" lon="6.20075">
        <ele>541</ele>
        <time>2019-02-22T16:21:15Z</time>
      </trkpt>
      <trkpt lat="43.64495" lon="6.2008">
        <ele>540</ele>
        <time>2019-02-22T16:21:29Z</time>
      </trkpt>
      <trkpt lat="43.64485" lon="6.20082">
        <ele>540</ele>
        <time>2019-02-22T16:21:33Z</time>
      </trkpt>
      <trkpt lat="43.64477" lon="6.20085">
        <ele>540</ele>
        <time>2019-02-22T16:21:39Z</time>
      </trkpt>
      <trkpt lat="43.6447" lon="6.20095">
        <ele>539</ele>
        <time>2019-02-22T16:22:00Z</time>
      </trkpt>
      <trkpt lat="43.64465" lon="6.20098">
        <ele>539</ele>
        <time>2019-02-22T16:22:49Z</time>
      </trkpt>
    </trkseg>
  </trk>
</gpx>